sensor_id;sensor_type;location;lat;lon;timestamp;P1;durP1;ratioP1;P2;durP2;ratioP2
11082;SDS011;5595;50.186;8.468;2022-08-16T00:02:17;3.28;;;2.70;;
11082;SDS011;5595;50.186;8.468;2022-08-16T00:04:44;2.80;;;2.47;;
11082;SDS011;5595;50.186;8.468;2022-08-16T00:07:11;3.55;;;3.05;;
11082;SDS011;5595;50.186;8.468;2022-08-16T00:09:39;22.90;;;7.18;;
11082;SDS011;5595;50.186;8.468;2022-08-16T00:12:06;70.85;;;17.85;;
11082;SDS011;5595;50.186;8.468;2022-08-16T00:14:33;17.13;;;6.15;;
11082;SDS011;5595;50.186;8.468;2022-08-16T00:17:00;6.47;;;3.28;;
11082;SDS011;5595;50.186;8.468;2022-08-16T00:19:29;11.32;;;4.53;;
11082;SDS011;5595;50.186;8.468;2022-08-16T00:21:57;18.45;;;7.28;;
11082;SDS011;5595;50.186;8.468;2022-08-16T00:24:26;8.90;;;4.28;;
11082;SDS011;5595;50.186;8.468;2022-08-16T00:26:55;4.03;;;2.92;;
11082;SDS011;5595;50.186;8.468;2022-08-16T00:29:22;9.52;;;3.53;;
11082;SDS011;5595;50.186;8.468;2022-08-16T00:31:50;4.93;;;2.85;;
11082;SDS011;5595;50.186;8.468;2022-08-16T00:34:20;2.92;;;2.60;;
11082;SDS011;5595;50.186;8.468;2022-08-16T00:36:48;2.70;;;2.50;;
11082;SDS011;5595;50.186;8.468;2022-08-16T00:39:16;4.65;;;2.70;;
11082;SDS011;5595;50.186;8.468;2022-08-16T00:41:45;4.05;;;2.72;;
11082;SDS011;5595;50.186;8.468;2022-08-16T00:44:18;2.40;;;2.20;;
11082;SDS011;5595;50.186;8.468;2022-08-16T00:46:49;5.50;;;2.95;;
11082;SDS011;5595;50.186;8.468;2022-08-16T00:49:19;8.52;;;3.60;;
11082;SDS011;5595;50.186;8.468;2022-08-16T00:51:47;5.07;;;3.35;;
11082;SDS011;5595;50.186;8.468;2022-08-16T00:54:15;3.92;;;2.53;;
11082;SDS011;5595;50.186;8.468;2022-08-16T00:56:44;4.03;;;3.00;;
11082;SDS011;5595;50.186;8.468;2022-08-16T00:59:14;4.40;;;3.00;;
11082;SDS011;5595;50.186;8.468;2022-08-16T01:01:44;4.15;;;2.63;;
11082;SDS011;5595;50.186;8.468;2022-08-16T01:04:12;4.40;;;2.83;;
11082;SDS011;5595;50.186;8.468;2022-08-16T01:06:42;3.08;;;2.78;;
11082;SDS011;5595;50.186;8.468;2022-08-16T01:09:09;3.13;;;2.70;;
11082;SDS011;5595;50.186;8.468;2022-08-16T01:11:43;5.47;;;2.40;;
11082;SDS011;5595;50.186;8.468;2022-08-16T01:14:11;2.80;;;2.60;;
11082;SDS011;5595;50.186;8.468;2022-08-16T01:16:45;2.40;;;2.20;;
11082;SDS011;5595;50.186;8.468;2022-08-16T01:19:15;4.53;;;2.55;;
11082;SDS011;5595;50.186;8.468;2022-08-16T01:21:54;2.55;;;2.35;;
11082;SDS011;5595;50.186;8.468;2022-08-16T01:24:27;4.57;;;2.40;;
11082;SDS011;5595;50.186;8.468;2022-08-16T01:26:58;3.22;;;2.50;;
11082;SDS011;5595;50.186;8.468;2022-08-16T01:29:31;3.30;;;2.90;;
11082;SDS011;5595;50.186;8.468;2022-08-16T01:32:01;8.60;;;3.22;;
11082;SDS011;5595;50.186;8.468;2022-08-16T01:34:30;5.30;;;2.45;;
11082;SDS011;5595;50.186;8.468;2022-08-16T01:36:58;3.88;;;2.63;;
11082;SDS011;5595;50.186;8.468;2022-08-16T01:39:29;5.15;;;2.75;;
11082;SDS011;5595;50.186;8.468;2022-08-16T01:41:56;3.53;;;2.88;;
11082;SDS011;5595;50.186;8.468;2022-08-16T01:44:23;3.35;;;2.45;;
11082;SDS011;5595;50.186;8.468;2022-08-16T01:46:50;3.92;;;2.67;;
11082;SDS011;5595;50.186;8.468;2022-08-16T01:49:21;2.97;;;2.58;;
11082;SDS011;5595;50.186;8.468;2022-08-16T01:51:52;3.97;;;2.53;;
11082;SDS011;5595;50.186;8.468;2022-08-16T01:54:21;3.10;;;2.78;;
11082;SDS011;5595;50.186;8.468;2022-08-16T01:56:49;3.25;;;2.58;;
11082;SDS011;5595;50.186;8.468;2022-08-16T01:59:16;6.20;;;2.92;;
11082;SDS011;5595;50.186;8.468;2022-08-16T02:01:44;2.97;;;2.78;;
11082;SDS011;5595;50.186;8.468;2022-08-16T02:04:12;3.33;;;2.75;;
11082;SDS011;5595;50.186;8.468;2022-08-16T02:06:40;3.67;;;3.33;;
11082;SDS011;5595;50.186;8.468;2022-08-16T02:09:08;3.40;;;3.10;;
11082;SDS011;5595;50.186;8.468;2022-08-16T02:11:36;3.60;;;2.90;;
11082;SDS011;5595;50.186;8.468;2022-08-16T02:14:05;3.35;;;3.03;;
11082;SDS011;5595;50.186;8.468;2022-08-16T02:16:32;4.13;;;2.92;;
11082;SDS011;5595;50.186;8.468;2022-08-16T02:19:00;3.10;;;2.75;;
11082;SDS011;5595;50.186;8.468;2022-08-16T02:21:27;4.25;;;3.17;;
11082;SDS011;5595;50.186;8.468;2022-08-16T02:23:54;3.50;;;2.78;;
11082;SDS011;5595;50.186;8.468;2022-08-16T02:26:21;4.43;;;2.97;;
11082;SDS011;5595;50.186;8.468;2022-08-16T02:28:48;3.20;;;2.90;;
11082;SDS011;5595;50.186;8.468;2022-08-16T02:31:16;3.50;;;3.22;;
11082;SDS011;5595;50.186;8.468;2022-08-16T02:33:43;3.22;;;2.97;;
11082;SDS011;5595;50.186;8.468;2022-08-16T02:36:14;3.20;;;2.90;;
11082;SDS011;5595;50.186;8.468;2022-08-16T02:38:44;4.13;;;3.20;;
11082;SDS011;5595;50.186;8.468;2022-08-16T02:41:11;4.15;;;3.15;;
11082;SDS011;5595;50.186;8.468;2022-08-16T02:43:39;3.85;;;3.55;;
11082;SDS011;5595;50.186;8.468;2022-08-16T02:46:06;3.50;;;3.20;;
11082;SDS011;5595;50.186;8.468;2022-08-16T02:48:36;3.83;;;3.20;;
11082;SDS011;5595;50.186;8.468;2022-08-16T02:51:05;3.50;;;3.05;;
11082;SDS011;5595;50.186;8.468;2022-08-16T02:53:34;4.40;;;3.22;;
11082;SDS011;5595;50.186;8.468;2022-08-16T02:56:01;4.38;;;2.92;;
11082;SDS011;5595;50.186;8.468;2022-08-16T02:58:29;5.75;;;3.58;;
11082;SDS011;5595;50.186;8.468;2022-08-16T03:00:57;5.05;;;3.10;;
11082;SDS011;5595;50.186;8.468;2022-08-16T03:03:24;3.75;;;3.08;;
11082;SDS011;5595;50.186;8.468;2022-08-16T03:05:53;2.90;;;2.70;;
11082;SDS011;5595;50.186;8.468;2022-08-16T03:08:21;3.60;;;3.30;;
11082;SDS011;5595;50.186;8.468;2022-08-16T03:10:48;3.38;;;3.08;;
11082;SDS011;5595;50.186;8.468;2022-08-16T03:13:16;5.03;;;3.53;;
11082;SDS011;5595;50.186;8.468;2022-08-16T03:15:43;8.90;;;3.53;;
11082;SDS011;5595;50.186;8.468;2022-08-16T03:18:11;6.03;;;3.58;;
11082;SDS011;5595;50.186;8.468;2022-08-16T03:20:39;3.80;;;3.47;;
11082;SDS011;5595;50.186;8.468;2022-08-16T03:23:10;3.80;;;3.50;;
11082;SDS011;5595;50.186;8.468;2022-08-16T03:25:38;3.60;;;3.30;;
11082;SDS011;5595;50.186;8.468;2022-08-16T03:28:05;4.95;;;3.85;;
11082;SDS011;5595;50.186;8.468;2022-08-16T03:30:33;4.57;;;3.22;;
11082;SDS011;5595;50.186;8.468;2022-08-16T03:33:01;5.82;;;3.85;;
11082;SDS011;5595;50.186;8.468;2022-08-16T03:35:29;4.32;;;3.92;;
11082;SDS011;5595;50.186;8.468;2022-08-16T03:37:58;3.75;;;3.45;;
11082;SDS011;5595;50.186;8.468;2022-08-16T03:40:30;4.78;;;3.60;;
11082;SDS011;5595;50.186;8.468;2022-08-16T03:42:58;6.88;;;3.78;;
11082;SDS011;5595;50.186;8.468;2022-08-16T03:45:25;7.32;;;3.53;;
11082;SDS011;5595;50.186;8.468;2022-08-16T03:47:52;6.13;;;4.55;;
11082;SDS011;5595;50.186;8.468;2022-08-16T03:50:18;4.55;;;4.15;;
11082;SDS011;5595;50.186;8.468;2022-08-16T03:52:45;5.07;;;3.97;;
11082;SDS011;5595;50.186;8.468;2022-08-16T03:55:12;4.78;;;4.25;;
11082;SDS011;5595;50.186;8.468;2022-08-16T03:57:40;5.70;;;4.00;;
11082;SDS011;5595;50.186;8.468;2022-08-16T04:00:09;5.72;;;4.15;;
11082;SDS011;5595;50.186;8.468;2022-08-16T04:02:39;4.22;;;3.90;;
11082;SDS011;5595;50.186;8.468;2022-08-16T04:05:07;4.22;;;3.83;;
11082;SDS011;5595;50.186;8.468;2022-08-16T04:07:35;4.18;;;3.70;;
11082;SDS011;5595;50.186;8.468;2022-08-16T04:10:03;4.55;;;4.18;;
11082;SDS011;5595;50.186;8.468;2022-08-16T04:12:31;5.75;;;4.10;;
11082;SDS011;5595;50.186;8.468;2022-08-16T04:15:00;5.80;;;3.90;;
11082;SDS011;5595;50.186;8.468;2022-08-16T04:17:28;5.65;;;4.13;;
11082;SDS011;5595;50.186;8.468;2022-08-16T04:19:56;4.55;;;4.18;;
11082;SDS011;5595;50.186;8.468;2022-08-16T04:22:23;5.43;;;3.55;;
11082;SDS011;5595;50.186;8.468;2022-08-16T04:24:51;4.85;;;4.35;;
11082;SDS011;5595;50.186;8.468;2022-08-16T04:27:18;4.65;;;4.15;;
11082;SDS011;5595;50.186;8.468;2022-08-16T04:29:45;6.88;;;3.92;;
11082;SDS011;5595;50.186;8.468;2022-08-16T04:32:13;5.95;;;3.92;;
11082;SDS011;5595;50.186;8.468;2022-08-16T04:34:40;5.05;;;3.88;;
11082;SDS011;5595;50.186;8.468;2022-08-16T04:37:07;5.03;;;4.05;;
11082;SDS011;5595;50.186;8.468;2022-08-16T04:39:34;4.15;;;3.83;;
11082;SDS011;5595;50.186;8.468;2022-08-16T04:42:02;5.75;;;5.07;;
11082;SDS011;5595;50.186;8.468;2022-08-16T04:44:29;7.63;;;6.55;;
11082;SDS011;5595;50.186;8.468;2022-08-16T04:46:57;4.78;;;4.22;;
11082;SDS011;5595;50.186;8.468;2022-08-16T04:49:25;7.72;;;4.50;;
11082;SDS011;5595;50.186;8.468;2022-08-16T04:51:52;5.68;;;4.50;;
11082;SDS011;5595;50.186;8.468;2022-08-16T04:54:19;6.50;;;4.47;;
11082;SDS011;5595;50.186;8.468;2022-08-16T04:56:46;4.93;;;4.53;;
11082;SDS011;5595;50.186;8.468;2022-08-16T04:59:13;5.55;;;4.30;;
11082;SDS011;5595;50.186;8.468;2022-08-16T05:01:40;5.25;;;4.75;;
11082;SDS011;5595;50.186;8.468;2022-08-16T05:04:07;10.45;;;9.40;;
11082;SDS011;5595;50.186;8.468;2022-08-16T05:06:35;6.95;;;5.45;;
11082;SDS011;5595;50.186;8.468;2022-08-16T05:09:02;5.82;;;5.22;;
11082;SDS011;5595;50.186;8.468;2022-08-16T05:11:29;5.68;;;4.78;;
11082;SDS011;5595;50.186;8.468;2022-08-16T05:13:56;5.82;;;4.63;;
11082;SDS011;5595;50.186;8.468;2022-08-16T05:16:26;5.22;;;4.82;;
11082;SDS011;5595;50.186;8.468;2022-08-16T05:18:55;7.55;;;6.80;;
11082;SDS011;5595;50.186;8.468;2022-08-16T05:21:23;7.00;;;5.50;;
11082;SDS011;5595;50.186;8.468;2022-08-16T05:23:54;6.53;;;5.60;;
11082;SDS011;5595;50.186;8.468;2022-08-16T05:26:21;7.63;;;5.22;;
11082;SDS011;5595;50.186;8.468;2022-08-16T05:28:48;6.88;;;5.63;;
11082;SDS011;5595;50.186;8.468;2022-08-16T05:31:15;6.68;;;5.60;;
11082;SDS011;5595;50.186;8.468;2022-08-16T05:33:42;5.18;;;4.68;;
11082;SDS011;5595;50.186;8.468;2022-08-16T05:36:10;6.80;;;4.95;;
11082;SDS011;5595;50.186;8.468;2022-08-16T05:38:37;5.60;;;5.10;;
11082;SDS011;5595;50.186;8.468;2022-08-16T05:41:05;7.20;;;5.93;;
11082;SDS011;5595;50.186;8.468;2022-08-16T05:43:32;5.85;;;5.25;;
11082;SDS011;5595;50.186;8.468;2022-08-16T05:45:59;7.10;;;4.82;;
11082;SDS011;5595;50.186;8.468;2022-08-16T05:48:26;5.72;;;5.22;;
11082;SDS011;5595;50.186;8.468;2022-08-16T05:50:53;9.13;;;5.70;;
11082;SDS011;5595;50.186;8.468;2022-08-16T05:53:23;7.10;;;5.90;;
11082;SDS011;5595;50.186;8.468;2022-08-16T05:55:50;12.05;;;7.72;;
11082;SDS011;5595;50.186;8.468;2022-08-16T05:58:18;9.15;;;7.95;;
11082;SDS011;5595;50.186;8.468;2022-08-16T06:00:45;8.65;;;7.28;;
11082;SDS011;5595;50.186;8.468;2022-08-16T06:03:12;8.45;;;7.13;;
11082;SDS011;5595;50.186;8.468;2022-08-16T06:05:39;5.18;;;4.68;;
11082;SDS011;5595;50.186;8.468;2022-08-16T06:08:07;5.38;;;4.85;;
11082;SDS011;5595;50.186;8.468;2022-08-16T06:10:34;8.18;;;6.30;;
11082;SDS011;5595;50.186;8.468;2022-08-16T06:13:01;7.78;;;7.07;;
11082;SDS011;5595;50.186;8.468;2022-08-16T06:15:29;5.53;;;5.03;;
11082;SDS011;5595;50.186;8.468;2022-08-16T06:17:56;5.75;;;4.82;;
11082;SDS011;5595;50.186;8.468;2022-08-16T06:20:25;7.55;;;6.18;;
11082;SDS011;5595;50.186;8.468;2022-08-16T06:22:54;10.55;;;6.95;;
11082;SDS011;5595;50.186;8.468;2022-08-16T06:25:22;4.82;;;4.20;;
11082;SDS011;5595;50.186;8.468;2022-08-16T06:27:50;3.50;;;3.20;;
11082;SDS011;5595;50.186;8.468;2022-08-16T06:30:17;5.15;;;4.57;;
11082;SDS011;5595;50.186;8.468;2022-08-16T06:32:46;3.88;;;3.28;;
11082;SDS011;5595;50.186;8.468;2022-08-16T06:35:13;4.78;;;4.00;;
11082;SDS011;5595;50.186;8.468;2022-08-16T06:37:40;4.80;;;4.40;;
11082;SDS011;5595;50.186;8.468;2022-08-16T06:40:07;5.97;;;4.90;;
11082;SDS011;5595;50.186;8.468;2022-08-16T06:42:35;5.93;;;4.57;;
11082;SDS011;5595;50.186;8.468;2022-08-16T06:45:02;7.63;;;5.25;;
11082;SDS011;5595;50.186;8.468;2022-08-16T06:47:30;3.55;;;3.22;;
11082;SDS011;5595;50.186;8.468;2022-08-16T06:49:59;6.72;;;4.10;;
11082;SDS011;5595;50.186;8.468;2022-08-16T06:52:26;4.68;;;4.10;;
11082;SDS011;5595;50.186;8.468;2022-08-16T06:54:54;5.50;;;4.53;;
11082;SDS011;5595;50.186;8.468;2022-08-16T06:57:21;5.70;;;4.53;;
11082;SDS011;5595;50.186;8.468;2022-08-16T06:59:48;4.55;;;4.13;;
11082;SDS011;5595;50.186;8.468;2022-08-16T07:02:15;4.90;;;3.28;;
11082;SDS011;5595;50.186;8.468;2022-08-16T07:04:45;4.68;;;4.28;;
11082;SDS011;5595;50.186;8.468;2022-08-16T07:07:16;5.13;;;3.60;;
11082;SDS011;5595;50.186;8.468;2022-08-16T07:09:43;3.85;;;3.55;;
11082;SDS011;5595;50.186;8.468;2022-08-16T07:12:11;7.95;;;4.90;;
11082;SDS011;5595;50.186;8.468;2022-08-16T07:14:39;3.17;;;2.92;;
11082;SDS011;5595;50.186;8.468;2022-08-16T07:17:06;3.65;;;3.35;;
11082;SDS011;5595;50.186;8.468;2022-08-16T07:19:33;6.03;;;3.75;;
11082;SDS011;5595;50.186;8.468;2022-08-16T07:22:00;4.20;;;3.80;;
11082;SDS011;5595;50.186;8.468;2022-08-16T07:24:28;5.85;;;3.75;;
11082;SDS011;5595;50.186;8.468;2022-08-16T07:26:55;4.70;;;3.10;;
11082;SDS011;5595;50.186;8.468;2022-08-16T07:29:23;4.80;;;3.80;;
11082;SDS011;5595;50.186;8.468;2022-08-16T07:31:50;4.78;;;4.28;;
11082;SDS011;5595;50.186;8.468;2022-08-16T07:34:17;4.90;;;3.72;;
11082;SDS011;5595;50.186;8.468;2022-08-16T07:36:44;5.15;;;4.03;;
11082;SDS011;5595;50.186;8.468;2022-08-16T07:39:11;5.38;;;2.60;;
11082;SDS011;5595;50.186;8.468;2022-08-16T07:41:40;5.55;;;4.15;;
11082;SDS011;5595;50.186;8.468;2022-08-16T07:44:08;3.47;;;3.15;;
11082;SDS011;5595;50.186;8.468;2022-08-16T07:46:35;5.88;;;2.72;;
11082;SDS011;5595;50.186;8.468;2022-08-16T07:49:02;3.00;;;2.63;;
11082;SDS011;5595;50.186;8.468;2022-08-16T07:51:30;6.70;;;3.22;;
11082;SDS011;5595;50.186;8.468;2022-08-16T07:53:59;5.22;;;3.42;;
11082;SDS011;5595;50.186;8.468;2022-08-16T07:56:26;5.57;;;3.90;;
11082;SDS011;5595;50.186;8.468;2022-08-16T07:59:00;3.50;;;2.85;;
11082;SDS011;5595;50.186;8.468;2022-08-16T08:01:27;7.68;;;4.53;;
11082;SDS011;5595;50.186;8.468;2022-08-16T08:04:04;3.65;;;3.33;;
11082;SDS011;5595;50.186;8.468;2022-08-16T08:06:33;3.67;;;3.45;;
11082;SDS011;5595;50.186;8.468;2022-08-16T08:09:00;3.25;;;2.95;;
11082;SDS011;5595;50.186;8.468;2022-08-16T08:11:28;2.97;;;2.78;;
11082;SDS011;5595;50.186;8.468;2022-08-16T08:13:58;4.40;;;2.63;;
11082;SDS011;5595;50.186;8.468;2022-08-16T08:16:26;4.60;;;3.05;;
11082;SDS011;5595;50.186;8.468;2022-08-16T08:18:53;6.53;;;3.00;;
11082;SDS011;5595;50.186;8.468;2022-08-16T08:21:21;3.70;;;3.22;;
11082;SDS011;5595;50.186;8.468;2022-08-16T08:23:49;4.80;;;2.53;;
11082;SDS011;5595;50.186;8.468;2022-08-16T08:26:16;3.70;;;3.10;;
11082;SDS011;5595;50.186;8.468;2022-08-16T08:28:44;2.60;;;2.40;;
11082;SDS011;5595;50.186;8.468;2022-08-16T08:31:15;2.60;;;2.25;;
11082;SDS011;5595;50.186;8.468;2022-08-16T08:33:42;4.25;;;2.35;;
11082;SDS011;5595;50.186;8.468;2022-08-16T08:36:09;2.28;;;2.08;;
11082;SDS011;5595;50.186;8.468;2022-08-16T08:38:40;2.67;;;2.47;;
11082;SDS011;5595;50.186;8.468;2022-08-16T08:41:08;2.40;;;2.22;;
11082;SDS011;5595;50.186;8.468;2022-08-16T08:43:35;3.38;;;2.10;;
11082;SDS011;5595;50.186;8.468;2022-08-16T08:46:02;2.40;;;2.30;;
11082;SDS011;5595;50.186;8.468;2022-08-16T08:48:32;2.50;;;2.30;;
11082;SDS011;5595;50.186;8.468;2022-08-16T08:51:00;2.17;;;2.08;;
11082;SDS011;5595;50.186;8.468;2022-08-16T08:53:28;2.28;;;2.08;;
11082;SDS011;5595;50.186;8.468;2022-08-16T08:55:56;2.65;;;2.50;;
11082;SDS011;5595;50.186;8.468;2022-08-16T08:58:23;4.78;;;2.40;;
11082;SDS011;5595;50.186;8.468;2022-08-16T09:00:50;5.05;;;3.33;;
11082;SDS011;5595;50.186;8.468;2022-08-16T09:03:17;2.60;;;2.40;;
11082;SDS011;5595;50.186;8.468;2022-08-16T09:05:46;2.63;;;2.13;;
11082;SDS011;5595;50.186;8.468;2022-08-16T09:08:13;2.80;;;2.25;;
11082;SDS011;5595;50.186;8.468;2022-08-16T09:10:40;2.30;;;2.10;;
11082;SDS011;5595;50.186;8.468;2022-08-16T09:13:10;6.78;;;3.42;;
11082;SDS011;5595;50.186;8.468;2022-08-16T09:15:38;4.13;;;2.55;;
11082;SDS011;5595;50.186;8.468;2022-08-16T09:18:08;3.25;;;2.95;;
11082;SDS011;5595;50.186;8.468;2022-08-16T09:20:38;4.00;;;3.70;;
11082;SDS011;5595;50.186;8.468;2022-08-16T09:23:06;6.78;;;2.70;;
11082;SDS011;5595;50.186;8.468;2022-08-16T09:25:34;3.00;;;2.80;;
11082;SDS011;5595;50.186;8.468;2022-08-16T09:28:02;3.90;;;3.17;;
11082;SDS011;5595;50.186;8.468;2022-08-16T09:30:35;3.50;;;3.20;;
11082;SDS011;5595;50.186;8.468;2022-08-16T09:33:06;3.90;;;2.33;;
11082;SDS011;5595;50.186;8.468;2022-08-16T09:35:33;4.32;;;2.95;;
11082;SDS011;5595;50.186;8.468;2022-08-16T09:38:01;3.38;;;3.08;;
11082;SDS011;5595;50.186;8.468;2022-08-16T09:40:29;5.90;;;4.00;;
11082;SDS011;5595;50.186;8.468;2022-08-16T09:42:57;3.53;;;2.67;;
11082;SDS011;5595;50.186;8.468;2022-08-16T09:45:24;2.83;;;2.40;;
11082;SDS011;5595;50.186;8.468;2022-08-16T09:47:52;5.93;;;4.03;;
11082;SDS011;5595;50.186;8.468;2022-08-16T09:50:20;6.30;;;2.88;;
11082;SDS011;5595;50.186;8.468;2022-08-16T09:52:49;3.25;;;2.95;;
11082;SDS011;5595;50.186;8.468;2022-08-16T09:55:16;5.80;;;2.90;;
11082;SDS011;5595;50.186;8.468;2022-08-16T09:57:44;5.35;;;3.80;;
11082;SDS011;5595;50.186;8.468;2022-08-16T10:00:11;3.38;;;2.95;;
11082;SDS011;5595;50.186;8.468;2022-08-16T10:02:39;3.70;;;2.70;;
11082;SDS011;5595;50.186;8.468;2022-08-16T10:05:07;4.25;;;3.00;;
11082;SDS011;5595;50.186;8.468;2022-08-16T10:07:35;3.20;;;2.67;;
11082;SDS011;5595;50.186;8.468;2022-08-16T10:10:06;7.18;;;2.85;;
11082;SDS011;5595;50.186;8.468;2022-08-16T10:12:33;5.68;;;2.88;;
11082;SDS011;5595;50.186;8.468;2022-08-16T10:15:20;3.33;;;2.60;;
11082;SDS011;5595;50.186;8.468;2022-08-16T10:17:48;4.78;;;3.53;;
11082;SDS011;5595;50.186;8.468;2022-08-16T10:20:20;4.50;;;3.20;;
11082;SDS011;5595;50.186;8.468;2022-08-16T10:22:49;3.55;;;3.25;;
11082;SDS011;5595;50.186;8.468;2022-08-16T10:25:16;4.90;;;2.70;;
11082;SDS011;5595;50.186;8.468;2022-08-16T10:27:44;2.97;;;2.53;;
11082;SDS011;5595;50.186;8.468;2022-08-16T10:30:13;2.80;;;2.60;;
11082;SDS011;5595;50.186;8.468;2022-08-16T10:32:42;2.83;;;2.63;;
11082;SDS011;5595;50.186;8.468;2022-08-16T10:35:10;3.83;;;2.35;;
11082;SDS011;5595;50.186;8.468;2022-08-16T10:37:37;3.60;;;2.47;;
11082;SDS011;5595;50.186;8.468;2022-08-16T10:40:04;4.38;;;2.70;;
11082;SDS011;5595;50.186;8.468;2022-08-16T10:42:33;5.03;;;2.70;;
11082;SDS011;5595;50.186;8.468;2022-08-16T10:45:00;2.58;;;2.40;;
11082;SDS011;5595;50.186;8.468;2022-08-16T10:47:27;3.83;;;3.13;;
11082;SDS011;5595;50.186;8.468;2022-08-16T10:50:06;3.03;;;2.72;;
11082;SDS011;5595;50.186;8.468;2022-08-16T10:52:33;2.53;;;2.30;;
11082;SDS011;5595;50.186;8.468;2022-08-16T10:55:01;4.28;;;2.50;;
11082;SDS011;5595;50.186;8.468;2022-08-16T10:57:29;2.47;;;2.28;;
11082;SDS011;5595;50.186;8.468;2022-08-16T10:59:56;2.83;;;2.20;;
11082;SDS011;5595;50.186;8.468;2022-08-16T11:02:23;6.57;;;2.20;;
11082;SDS011;5595;50.186;8.468;2022-08-16T11:04:51;2.55;;;2.28;;
11082;SDS011;5595;50.186;8.468;2022-08-16T11:07:20;3.42;;;2.40;;
11082;SDS011;5595;50.186;8.468;2022-08-16T11:09:47;2.67;;;2.25;;
11082;SDS011;5595;50.186;8.468;2022-08-16T11:12:14;2.60;;;2.30;;
11082;SDS011;5595;50.186;8.468;2022-08-16T11:14:41;4.05;;;2.40;;
11082;SDS011;5595;50.186;8.468;2022-08-16T11:17:08;3.60;;;2.40;;
11082;SDS011;5595;50.186;8.468;2022-08-16T11:19:37;3.70;;;2.55;;
11082;SDS011;5595;50.186;8.468;2022-08-16T11:22:05;4.50;;;2.50;;
11082;SDS011;5595;50.186;8.468;2022-08-16T11:24:34;2.78;;;2.58;;
11082;SDS011;5595;50.186;8.468;2022-08-16T11:27:04;3.10;;;2.33;;
11082;SDS011;5595;50.186;8.468;2022-08-16T11:29:32;3.90;;;2.30;;
11082;SDS011;5595;50.186;8.468;2022-08-16T11:31:59;4.43;;;2.40;;
11082;SDS011;5595;50.186;8.468;2022-08-16T11:34:29;2.00;;;1.90;;
11082;SDS011;5595;50.186;8.468;2022-08-16T11:36:56;2.60;;;2.40;;
11082;SDS011;5595;50.186;8.468;2022-08-16T11:39:23;2.80;;;2.00;;
11082;SDS011;5595;50.186;8.468;2022-08-16T11:41:51;2.85;;;2.65;;
11082;SDS011;5595;50.186;8.468;2022-08-16T11:44:18;2.65;;;1.92;;
11082;SDS011;5595;50.186;8.468;2022-08-16T11:46:45;2.25;;;2.15;;
11082;SDS011;5595;50.186;8.468;2022-08-16T11:49:14;3.75;;;1.88;;
11082;SDS011;5595;50.186;8.468;2022-08-16T11:51:42;2.50;;;2.20;;
11082;SDS011;5595;50.186;8.468;2022-08-16T11:54:09;2.28;;;2.03;;
11082;SDS011;5595;50.186;8.468;2022-08-16T11:56:36;2.60;;;2.40;;
11082;SDS011;5595;50.186;8.468;2022-08-16T11:59:05;5.85;;;2.65;;
11082;SDS011;5595;50.186;8.468;2022-08-16T12:01:32;3.85;;;2.08;;
11082;SDS011;5595;50.186;8.468;2022-08-16T12:03:59;2.45;;;2.25;;
11082;SDS011;5595;50.186;8.468;2022-08-16T12:06:27;4.80;;;2.38;;
11082;SDS011;5595;50.186;8.468;2022-08-16T12:08:54;2.33;;;2.22;;
11082;SDS011;5595;50.186;8.468;2022-08-16T12:11:23;5.78;;;2.53;;
11082;SDS011;5595;50.186;8.468;2022-08-16T12:13:51;2.58;;;2.45;;
11082;SDS011;5595;50.186;8.468;2022-08-16T12:16:19;2.53;;;2.33;;
11082;SDS011;5595;50.186;8.468;2022-08-16T12:18:47;4.28;;;2.20;;
11082;SDS011;5595;50.186;8.468;2022-08-16T12:21:14;2.90;;;2.40;;
11082;SDS011;5595;50.186;8.468;2022-08-16T12:23:42;3.10;;;2.47;;
11082;SDS011;5595;50.186;8.468;2022-08-16T12:26:09;2.50;;;2.30;;
11082;SDS011;5595;50.186;8.468;2022-08-16T12:28:36;3.63;;;2.40;;
11082;SDS011;5595;50.186;8.468;2022-08-16T12:31:03;3.22;;;2.25;;
11082;SDS011;5595;50.186;8.468;2022-08-16T12:33:32;2.58;;;2.38;;
11082;SDS011;5595;50.186;8.468;2022-08-16T12:35:59;2.55;;;2.28;;
11082;SDS011;5595;50.186;8.468;2022-08-16T12:38:26;2.50;;;2.10;;
11082;SDS011;5595;50.186;8.468;2022-08-16T12:40:54;2.30;;;2.20;;
11082;SDS011;5595;50.186;8.468;2022-08-16T12:43:22;4.93;;;2.20;;
11082;SDS011;5595;50.186;8.468;2022-08-16T12:45:50;2.90;;;2.20;;
11082;SDS011;5595;50.186;8.468;2022-08-16T12:48:22;3.58;;;2.03;;
11082;SDS011;5595;50.186;8.468;2022-08-16T12:51:11;3.97;;;2.25;;
11082;SDS011;5595;50.186;8.468;2022-08-16T12:53:40;3.35;;;1.70;;
11082;SDS011;5595;50.186;8.468;2022-08-16T12:56:07;2.38;;;2.08;;
11082;SDS011;5595;50.186;8.468;2022-08-16T12:58:36;2.92;;;2.00;;
11082;SDS011;5595;50.186;8.468;2022-08-16T13:01:03;2.10;;;2.00;;
11082;SDS011;5595;50.186;8.468;2022-08-16T13:03:31;2.22;;;2.00;;
11082;SDS011;5595;50.186;8.468;2022-08-16T13:05:58;2.13;;;1.90;;
11082;SDS011;5595;50.186;8.468;2022-08-16T13:08:27;2.83;;;1.70;;
11082;SDS011;5595;50.186;8.468;2022-08-16T13:10:54;3.53;;;1.70;;
11082;SDS011;5595;50.186;8.468;2022-08-16T13:13:22;2.30;;;1.60;;
11082;SDS011;5595;50.186;8.468;2022-08-16T13:15:50;2.30;;;1.80;;
11082;SDS011;5595;50.186;8.468;2022-08-16T13:18:18;9.45;;;1.83;;
11082;SDS011;5595;50.186;8.468;2022-08-16T13:20:46;2.05;;;1.80;;
11082;SDS011;5595;50.186;8.468;2022-08-16T13:23:14;2.30;;;1.80;;
11082;SDS011;5595;50.186;8.468;2022-08-16T13:25:44;1.75;;;1.65;;
11082;SDS011;5595;50.186;8.468;2022-08-16T13:28:12;1.80;;;1.70;;
11082;SDS011;5595;50.186;8.468;2022-08-16T13:30:41;4.40;;;1.75;;
11082;SDS011;5595;50.186;8.468;2022-08-16T13:33:10;3.03;;;1.70;;
11082;SDS011;5595;50.186;8.468;2022-08-16T13:35:38;3.35;;;1.63;;
11082;SDS011;5595;50.186;8.468;2022-08-16T13:38:06;2.88;;;1.52;;
11082;SDS011;5595;50.186;8.468;2022-08-16T13:40:33;2.72;;;1.55;;
11082;SDS011;5595;50.186;8.468;2022-08-16T13:43:01;3.25;;;1.80;;
11082;SDS011;5595;50.186;8.468;2022-08-16T13:45:28;5.05;;;1.80;;
11082;SDS011;5595;50.186;8.468;2022-08-16T13:47:57;3.63;;;1.95;;
11082;SDS011;5595;50.186;8.468;2022-08-16T13:50:24;1.70;;;1.60;;
11082;SDS011;5595;50.186;8.468;2022-08-16T13:52:52;1.80;;;1.70;;
11082;SDS011;5595;50.186;8.468;2022-08-16T13:55:19;2.13;;;1.95;;
11082;SDS011;5595;50.186;8.468;2022-08-16T13:57:46;1.90;;;1.65;;
11082;SDS011;5595;50.186;8.468;2022-08-16T14:00:15;4.72;;;2.08;;
11082;SDS011;5595;50.186;8.468;2022-08-16T14:02:43;1.73;;;1.63;;
11082;SDS011;5595;50.186;8.468;2022-08-16T14:05:13;3.40;;;1.67;;
11082;SDS011;5595;50.186;8.468;2022-08-16T14:07:40;2.40;;;1.92;;
11082;SDS011;5595;50.186;8.468;2022-08-16T14:10:09;2.40;;;2.20;;
11082;SDS011;5595;50.186;8.468;2022-08-16T14:12:38;1.55;;;1.45;;
11082;SDS011;5595;50.186;8.468;2022-08-16T14:15:07;2.83;;;1.60;;
11082;SDS011;5595;50.186;8.468;2022-08-16T14:17:37;1.67;;;1.58;;
11082;SDS011;5595;50.186;8.468;2022-08-16T14:20:05;1.95;;;1.75;;
11082;SDS011;5595;50.186;8.468;2022-08-16T14:22:34;2.70;;;1.73;;
11082;SDS011;5595;50.186;8.468;2022-08-16T14:25:03;1.70;;;1.60;;
11082;SDS011;5595;50.186;8.468;2022-08-16T14:27:33;3.05;;;1.85;;
11082;SDS011;5595;50.186;8.468;2022-08-16T14:30:00;1.83;;;1.45;;
11082;SDS011;5595;50.186;8.468;2022-08-16T14:32:28;2.03;;;1.60;;
11082;SDS011;5595;50.186;8.468;2022-08-16T14:34:57;4.43;;;1.65;;
11082;SDS011;5595;50.186;8.468;2022-08-16T14:37:25;1.98;;;1.77;;
11082;SDS011;5595;50.186;8.468;2022-08-16T14:39:52;2.25;;;1.70;;
11082;SDS011;5595;50.186;8.468;2022-08-16T14:42:20;5.72;;;1.88;;
11082;SDS011;5595;50.186;8.468;2022-08-16T14:44:51;2.25;;;1.63;;
11082;SDS011;5595;50.186;8.468;2022-08-16T14:47:18;2.25;;;1.50;;
11082;SDS011;5595;50.186;8.468;2022-08-16T14:49:46;2.03;;;1.70;;
11082;SDS011;5595;50.186;8.468;2022-08-16T14:52:15;1.92;;;1.58;;
11082;SDS011;5595;50.186;8.468;2022-08-16T14:54:45;1.88;;;1.70;;
11082;SDS011;5595;50.186;8.468;2022-08-16T14:57:13;3.65;;;1.75;;
11082;SDS011;5595;50.186;8.468;2022-08-16T14:59:40;3.55;;;1.60;;
11082;SDS011;5595;50.186;8.468;2022-08-16T15:02:09;1.83;;;1.70;;
11082;SDS011;5595;50.186;8.468;2022-08-16T15:04:40;1.83;;;1.58;;
11082;SDS011;5595;50.186;8.468;2022-08-16T15:07:07;2.28;;;1.83;;